Morganville, Washington
Current Conditions -  °F | °C
As of 3:53 AM on Tuesday 27 Jan 2015 (Local Time) from KRNT Reporting Station
Overcast Overcast  
Wind Chill: 48°   Ceiling: 2100
Heat Index: 48°   Visibility: 10mi
Dew Point: 46°   Wind: 3mph
Humidity: 93%   Direction: 110°ESE
Pressure: 30"   Gusts: NA
Location:  47.3203°N, 121.982°W
Report Text: KRNT 271153Z AUTO 11003KT 10SM OVC021 09/08 A3000 RMK AO2 SLP165 T00890078 10100 20072 51007
Loading
Personal Weather Stations






























Interactive Weather Map New forecast layout! Learn more

10-Day Weather Forecast

Advertisements
Track Severe Weather on mobile